Andover, New Jersey
Current Conditions -  °F | °C
As of 6:53 PM on Wednesday 22 Oct 2014 (Local Time) from KFWN Reporting Station
Light Rain Light Rain  
Wind Chill: 54°   Ceiling: 2800
Heat Index: 54°   Visibility: 10mi
Dew Point: 48°   Wind: 6mph
Humidity: 80%   Direction: 10°N
Pressure: 29.88"   Gusts: NA
Location:  40.99°N, 74.74°W
Report Text: KFWN 222253Z AUTO 01005KT 10SM -RA OVC028 12/09 A2988 RMK AO2 SLP117 P0003 T01220089
Loading
Personal Weather Stations






























Interactive Weather Map New forecast layout! Learn more

10-Day Weather Forecast

Advertisements
Track Severe Weather on mobile